Time;durP1;ratioP1;P1;durP2;ratioP2;P2;SDS_P1;SDS_P2;PMS_P1;PMS_P2;Temp;Humidity;BMP_temperature;BMP_pressure;BME280_temperature;BME280_humidity;BME280_pressure;Samples;Min_cycle;Max_cycle;Signal;HPM_P1;HPM_P2
2022/03/07 00:00:39;;;;;;;;;;;6.30;43.00;;;;;;5017370;28;19910;-55
2022/03/07 00:03:04;;;;;;;;;;;6.40;42.70;;;;;;5017469;28;19917;-55
2022/03/07 00:05:30;;;;;;;;;;;6.20;42.90;;;;;;5017178;28;19995;-54
2022/03/07 00:07:56;;;;;;;;;;;6.10;43.00;;;;;;5016458;28;20000;-56
2022/03/07 00:10:21;;;;;;;;;;;6.30;43.00;;;;;;5017084;28;19909;-57
2022/03/07 00:12:47;;;;;;;;;;;6.30;42.80;;;;;;5017023;28;20015;-53
2022/03/07 00:15:12;;;;;;;;;;;6.40;42.40;;;;;;5017015;28;19909;-53
2022/03/07 00:17:38;;;;;;;;;;;6.30;42.40;;;;;;5016870;28;19921;-53
2022/03/07 00:20:04;;;;;;;;;;;6.40;42.40;;;;;;5016653;28;20408;-55
2022/03/07 00:22:30;;;;;;;;;;;6.40;42.40;;;;;;5015543;28;19945;-55
2022/03/07 00:24:55;;;;;;;;;;;6.20;42.30;;;;;;5017099;28;19992;-55
2022/03/07 00:27:21;;;;;;;;;;;6.30;42.30;;;;;;4999340;28;19916;-53
2022/03/07 00:29:46;;;;;;;;;;;6.40;42.40;;;;;;5016588;28;19913;-55
2022/03/07 00:32:12;;;;;;;;;;;6.30;42.30;;;;;;5016873;28;20000;-55
2022/03/07 00:34:38;;;;;;;;;;;6.20;42.30;;;;;;5016570;28;19967;-55
2022/03/07 00:37:03;;;;;;;;;;;6.30;42.30;;;;;;5016469;28;19909;-55
2022/03/07 00:39:29;;;;;;;;;;;6.30;42.20;;;;;;5016429;28;19996;-53
2022/03/07 00:41:55;;;;;;;;;;;6.30;42.20;;;;;;5016533;28;19971;-53
2022/03/07 00:44:20;;;;;;;;;;;6.20;42.40;;;;;;5016554;28;20007;-54
2022/03/07 00:46:46;;;;;;;;;;;6.10;42.20;;;;;;5016231;28;19913;-53
2022/03/07 00:49:11;;;;;;;;;;;6.20;42.30;;;;;;5016013;28;19909;-54
2022/03/07 00:51:37;;;;;;;;;;;6.20;42.30;;;;;;5016474;28;19913;-54
2022/03/07 00:54:03;;;;;;;;;;;6.20;42.30;;;;;;5016225;28;19910;-54
2022/03/07 00:56:28;;;;;;;;;;;6.10;42.20;;;;;;5016026;28;19948;-59
2022/03/07 00:58:54;;;;;;;;;;;6.10;42.50;;;;;;5016383;28;19940;-55
2022/03/07 01:01:19;;;;;;;;;;;6.10;42.10;;;;;;5016330;28;19910;-54
2022/03/07 01:03:45;;;;;;;;;;;5.90;42.30;;;;;;5016101;28;19916;-54
2022/03/07 01:06:10;;;;;;;;;;;5.70;42.70;;;;;;5015804;28;20306;-54
2022/03/07 01:08:36;;;;;;;;;;;5.70;42.70;;;;;;5016122;28;19948;-56
2022/03/07 01:11:02;;;;;;;;;;;5.70;42.50;;;;;;5015959;28;19953;-54
2022/03/07 01:13:29;;;;;;;;;;;5.70;42.60;;;;;;4998375;28;19914;-54
2022/03/07 01:15:54;;;;;;;;;;;5.80;42.60;;;;;;5015725;28;19909;-54
2022/03/07 01:18:20;;;;;;;;;;;5.80;42.40;;;;;;5015491;28;20332;-54
2022/03/07 01:20:46;;;;;;;;;;;5.80;42.30;;;;;;5015986;28;19959;-54
2022/03/07 01:23:11;;;;;;;;;;;5.80;42.40;;;;;;5015978;28;20358;-54
2022/03/07 01:25:37;;;;;;;;;;;5.90;42.30;;;;;;5015641;28;19932;-55
2022/03/07 01:28:02;;;;;;;;;;;5.90;42.10;;;;;;5015585;28;19932;-54
2022/03/07 01:30:28;;;;;;;;;;;5.80;42.00;;;;;;5015580;28;19917;-54
2022/03/07 01:32:54;;;;;;;;;;;5.80;42.10;;;;;;5015397;28;20329;-54
2022/03/07 01:35:19;;;;;;;;;;;5.80;42.10;;;;;;5015462;28;19909;-56
2022/03/07 01:37:46;;;;;;;;;;;5.90;42.20;;;;;;5015813;28;19918;-57
2022/03/07 01:40:11;;;;;;;;;;;6.00;42.00;;;;;;5015705;28;20246;-54
2022/03/07 01:42:37;;;;;;;;;;;6.10;41.60;;;;;;5015436;28;19917;-54
2022/03/07 01:45:08;;;;;;;;;;;6.00;41.70;;;;;;5015478;28;19909;-54
2022/03/07 01:47:34;;;;;;;;;;;5.70;42.00;;;;;;5015137;28;19948;-55
2022/03/07 01:49:59;;;;;;;;;;;5.70;42.70;;;;;;5015324;28;19910;-55
2022/03/07 01:52:25;;;;;;;;;;;5.60;42.50;;;;;;5015272;28;19917;-54
2022/03/07 01:54:50;;;;;;;;;;;5.60;42.60;;;;;;5015324;28;19932;-54
2022/03/07 01:57:16;;;;;;;;;;;5.60;42.70;;;;;;5015242;28;19955;-53
2022/03/07 01:59:41;;;;;;;;;;;5.60;42.70;;;;;;5015005;28;19910;-54
2022/03/07 02:02:08;;;;;;;;;;;5.60;42.60;;;;;;5014542;28;19909;-55
2022/03/07 02:04:37;;;;;;;;;;;5.60;42.90;;;;;;5015185;28;20377;-54
2022/03/07 02:07:03;;;;;;;;;;;5.40;42.90;;;;;;5014848;28;20383;-55
2022/03/07 02:09:28;;;;;;;;;;;5.20;44.10;;;;;;5015029;28;19941;-54
2022/03/07 02:11:54;;;;;;;;;;;5.00;44.10;;;;;;5015020;28;20396;-57
2022/03/07 02:14:23;;;;;;;;;;;5.00;44.00;;;;;;5014924;28;20004;-54
2022/03/07 02:16:50;;;;;;;;;;;5.10;43.80;;;;;;5014629;28;20388;-54
2022/03/07 02:19:15;;;;;;;;;;;5.10;43.80;;;;;;5014558;28;19925;-55
2022/03/07 02:21:46;;;;;;;;;;;5.10;44.00;;;;;;4996893;28;19916;-56
2022/03/07 02:24:12;;;;;;;;;;;5.10;43.90;;;;;;5014904;28;19953;-54
2022/03/07 02:26:38;;;;;;;;;;;5.20;43.80;;;;;;5014340;28;19917;-54
2022/03/07 02:29:04;;;;;;;;;;;5.30;44.00;;;;;;5014699;28;20423;-55
2022/03/07 02:31:29;;;;;;;;;;;5.10;43.70;;;;;;5014482;28;19910;-54
2022/03/07 02:33:55;;;;;;;;;;;5.20;43.60;;;;;;5014614;28;20457;-55
2022/03/07 02:36:21;;;;;;;;;;;5.10;43.70;;;;;;5014414;28;20395;-52
2022/03/07 02:38:47;;;;;;;;;;;4.90;44.00;;;;;;5014452;28;19917;-55
2022/03/07 02:41:12;;;;;;;;;;;4.90;44.20;;;;;;5014527;28;19917;-55
2022/03/07 02:43:38;;;;;;;;;;;4.90;44.40;;;;;;5014280;28;20277;-53
2022/03/07 02:46:04;;;;;;;;;;;5.00;44.30;;;;;;5014009;28;20001;-54
2022/03/07 02:48:29;;;;;;;;;;;4.90;44.30;;;;;;5014462;28;19910;-55
2022/03/07 02:50:57;;;;;;;;;;;4.80;44.40;;;;;;5014287;28;19909;-54
2022/03/07 02:53:23;;;;;;;;;;;4.70;44.70;;;;;;5014064;28;19910;-52
2022/03/07 02:55:48;;;;;;;;;;;4.70;44.70;;;;;;5014149;28;20063;-53
2022/03/07 02:58:14;;;;;;;;;;;4.70;44.80;;;;;;5014093;28;19914;-54
2022/03/07 03:00:39;;;;;;;;;;;4.70;44.70;;;;;;5014004;28;20281;-54
2022/03/07 03:03:05;;;;;;;;;;;4.60;44.90;;;;;;5013999;28;20393;-52
2022/03/07 03:05:31;;;;;;;;;;;4.50;45.10;;;;;;5014076;28;19955;-52
2022/03/07 03:07:56;;;;;;;;;;;4.60;44.90;;;;;;5014188;28;19909;-53
2022/03/07 03:10:22;;;;;;;;;;;4.60;44.90;;;;;;5013906;28;19910;-55
2022/03/07 03:12:48;;;;;;;;;;;4.60;44.90;;;;;;5013714;28;19996;-54
2022/03/07 03:15:14;;;;;;;;;;;4.50;44.90;;;;;;5013732;28;19910;-54
2022/03/07 03:17:40;;;;;;;;;;;4.40;45.20;;;;;;5013876;28;20258;-54
2022/03/07 03:20:06;;;;;;;;;;;4.40;45.20;;;;;;5013610;28;19925;-55
2022/03/07 03:22:32;;;;;;;;;;;4.60;45.20;;;;;;5013726;28;20067;-54
2022/03/07 03:24:57;;;;;;;;;;;4.60;44.90;;;;;;5013997;28;19917;-55
2022/03/07 03:27:23;;;;;;;;;;;4.60;44.90;;;;;;5013781;28;19917;-55
2022/03/07 03:29:48;;;;;;;;;;;4.50;45.00;;;;;;5013642;28;19910;-57
2022/03/07 03:32:15;;;;;;;;;;;4.50;45.00;;;;;;5013854;28;19921;-53
2022/03/07 03:34:41;;;;;;;;;;;4.60;44.80;;;;;;5013523;28;20004;-53
2022/03/07 03:37:07;;;;;;;;;;;4.70;44.80;;;;;;5013868;28;19956;-54
2022/03/07 03:39:32;;;;;;;;;;;4.70;45.30;;;;;;5013618;28;20255;-55
2022/03/07 03:41:58;;;;;;;;;;;4.70;44.50;;;;;;5013550;28;19967;-54
2022/03/07 03:44:23;;;;;;;;;;;4.70;44.50;;;;;;5013703;28;20249;-54
2022/03/07 03:46:49;;;;;;;;;;;4.80;44.30;;;;;;5013505;28;20278;-53
2022/03/07 03:49:15;;;;;;;;;;;4.80;44.10;;;;;;5013597;28;19971;-53
2022/03/07 03:51:40;;;;;;;;;;;4.80;44.00;;;;;;5013702;28;19910;-52
2022/03/07 03:54:06;;;;;;;;;;;4.80;44.30;;;;;;5013466;28;19909;-53
2022/03/07 03:56:31;;;;;;;;;;;4.70;44.40;;;;;;5013390;28;19910;-54
2022/03/07 03:58:57;;;;;;;;;;;4.90;44.40;;;;;;5013395;28;20293;-58
2022/03/07 04:01:22;;;;;;;;;;;4.90;44.00;;;;;;5013735;28;20004;-55
2022/03/07 04:03:48;;;;;;;;;;;4.90;44.10;;;;;;5013683;28;19966;-54
2022/03/07 04:06:13;;;;;;;;;;;4.90;43.90;;;;;;5013280;28;19917;-55
2022/03/07 04:08:39;;;;;;;;;;;4.80;44.30;;;;;;5013632;28;19910;-54
2022/03/07 04:11:04;;;;;;;;;;;4.80;44.50;;;;;;5013389;28;19917;-55
2022/03/07 04:13:30;;;;;;;;;;;4.90;44.40;;;;;;5013440;28;19909;-54
2022/03/07 04:15:56;;;;;;;;;;;4.90;44.40;;;;;;5013331;28;19968;-53
2022/03/07 04:18:21;;;;;;;;;;;5.00;44.00;;;;;;5013181;28;20265;-53
2022/03/07 04:20:47;;;;;;;;;;;4.90;44.10;;;;;;5013426;28;19915;-55
2022/03/07 04:23:12;;;;;;;;;;;5.00;44.20;;;;;;5013255;28;19909;-54
2022/03/07 04:25:38;;;;;;;;;;;4.90;44.10;;;;;;5015092;28;19917;-54
2022/03/07 04:28:04;;;;;;;;;;;4.80;44.30;;;;;;5016733;28;19910;-54
2022/03/07 04:30:30;;;;;;;;;;;4.80;44.30;;;;;;5016702;28;19910;-54
2022/03/07 04:32:56;;;;;;;;;;;4.60;44.80;;;;;;5016999;28;19909;-54
2022/03/07 04:35:21;;;;;;;;;;;4.60;44.90;;;;;;5016755;28;19917;-54
2022/03/07 04:37:47;;;;;;;;;;;4.80;44.80;;;;;;5016603;28;19941;-54
2022/03/07 04:40:16;;;;;;;;;;;4.90;44.60;;;;;;5016678;28;20377;-54
2022/03/07 04:42:42;;;;;;;;;;;4.80;44.00;;;;;;5016404;28;19996;-54
2022/03/07 04:45:08;;;;;;;;;;;4.70;44.20;;;;;;5016680;28;19910;-52
2022/03/07 04:47:34;;;;;;;;;;;4.60;44.90;;;;;;5016624;28;20263;-55
2022/03/07 04:50:00;;;;;;;;;;;4.60;45.10;;;;;;4999267;28;19910;-53
2022/03/07 04:52:25;;;;;;;;;;;4.60;45.00;;;;;;5016566;28;19909;-53
2022/03/07 04:54:51;;;;;;;;;;;4.60;44.60;;;;;;5016429;28;19909;-53
2022/03/07 04:57:16;;;;;;;;;;;4.50;45.10;;;;;;5016611;28;19925;-53
2022/03/07 04:59:45;;;;;;;;;;;4.60;45.10;;;;;;4998829;28;19949;-54
2022/03/07 05:02:11;;;;;;;;;;;4.60;44.90;;;;;;5016570;28;20372;-56
2022/03/07 05:04:37;;;;;;;;;;;4.60;44.90;;;;;;5016577;28;19910;-53
2022/03/07 05:07:03;;;;;;;;;;;4.70;44.90;;;;;;5016175;28;19910;-55
2022/03/07 05:09:28;;;;;;;;;;;4.70;44.50;;;;;;5015894;28;20366;-53
2022/03/07 05:11:54;;;;;;;;;;;4.70;44.40;;;;;;5015886;28;19963;-54
2022/03/07 05:14:19;;;;;;;;;;;4.70;44.60;;;;;;5016185;28;19917;-55
2022/03/07 05:16:45;;;;;;;;;;;4.70;44.70;;;;;;5016130;28;19920;-54
2022/03/07 05:19:11;;;;;;;;;;;4.70;44.70;;;;;;5015556;28;20004;-54
2022/03/07 05:21:37;;;;;;;;;;;4.60;44.80;;;;;;5015923;28;19933;-54
2022/03/07 05:24:02;;;;;;;;;;;4.60;44.80;;;;;;5015835;28;20366;-54
2022/03/07 05:26:28;;;;;;;;;;;4.50;45.30;;;;;;5015684;28;19913;-54
2022/03/07 05:28:54;;;;;;;;;;;4.50;45.10;;;;;;5015618;28;19909;-53
2022/03/07 05:31:19;;;;;;;;;;;4.50;45.00;;;;;;5015599;28;19910;-54
2022/03/07 05:33:45;;;;;;;;;;;4.50;45.30;;;;;;5015608;28;19914;-53
2022/03/07 05:36:10;;;;;;;;;;;4.30;45.50;;;;;;5014585;28;19916;-53
2022/03/07 05:38:36;;;;;;;;;;;4.30;45.50;;;;;;5015390;28;20418;-53
2022/03/07 05:41:02;;;;;;;;;;;4.30;45.70;;;;;;5015617;28;19973;-53
2022/03/07 05:43:27;;;;;;;;;;;4.30;45.40;;;;;;5015642;28;19917;-53
2022/03/07 05:45:53;;;;;;;;;;;4.40;45.60;;;;;;5015358;28;20257;-53
2022/03/07 05:48:18;;;;;;;;;;;4.40;45.60;;;;;;5015445;28;20333;-53
2022/03/07 05:50:44;;;;;;;;;;;4.40;45.30;;;;;;5015163;28;19909;-53
2022/03/07 05:53:09;;;;;;;;;;;4.50;45.40;;;;;;4997739;28;19916;-55
2022/03/07 05:55:35;;;;;;;;;;;4.50;44.90;;;;;;5015053;28;19913;-55
2022/03/07 05:58:01;;;;;;;;;;;4.40;45.30;;;;;;4997536;28;19921;-54
2022/03/07 06:00:27;;;;;;;;;;;4.20;45.80;;;;;;5015238;28;19917;-54
2022/03/07 06:02:53;;;;;;;;;;;4.10;46.00;;;;;;5015158;28;19956;-54
2022/03/07 06:05:19;;;;;;;;;;;4.10;46.20;;;;;;5014893;28;20411;-54
2022/03/07 06:07:45;;;;;;;;;;;4.10;46.30;;;;;;5015159;28;19910;-52
2022/03/07 06:10:10;;;;;;;;;;;4.30;46.00;;;;;;5015137;28;19909;-55
2022/03/07 06:12:36;;;;;;;;;;;4.30;45.80;;;;;;5015202;28;19914;-53
2022/03/07 06:15:04;;;;;;;;;;;4.20;46.30;;;;;;5014962;28;19956;-53
2022/03/07 06:17:30;;;;;;;;;;;4.10;46.30;;;;;;5014620;28;20481;-55
2022/03/07 06:19:56;;;;;;;;;;;4.10;46.30;;;;;;5014484;28;19928;-53
2022/03/07 06:22:22;;;;;;;;;;;4.00;47.00;;;;;;5014678;28;19909;-54
2022/03/07 06:24:47;;;;;;;;;;;4.10;46.00;;;;;;5014570;28;19921;-55
2022/03/07 06:27:13;;;;;;;;;;;4.20;46.00;;;;;;5014548;28;19910;-54
2022/03/07 06:29:38;;;;;;;;;;;4.20;46.10;;;;;;5014628;28;20273;-59
2022/03/07 06:32:04;;;;;;;;;;;4.10;46.10;;;;;;5014578;28;19909;-53
2022/03/07 06:34:31;;;;;;;;;;;3.90;46.50;;;;;;5014492;28;19959;-53
2022/03/07 06:36:57;;;;;;;;;;;3.90;46.40;;;;;;5014401;28;19956;-54
2022/03/07 06:39:25;;;;;;;;;;;3.80;46.80;;;;;;5013241;28;20269;-54
2022/03/07 06:41:51;;;;;;;;;;;3.90;46.60;;;;;;5014673;28;19992;-53
2022/03/07 06:44:17;;;;;;;;;;;3.90;46.50;;;;;;5015061;28;19944;-55
2022/03/07 06:46:42;;;;;;;;;;;4.00;46.50;;;;;;5014439;28;19910;-54
2022/03/07 06:49:08;;;;;;;;;;;4.10;46.50;;;;;;5014194;28;19913;-53
2022/03/07 06:51:33;;;;;;;;;;;4.00;46.10;;;;;;5014560;28;19910;-54
2022/03/07 06:53:59;;;;;;;;;;;4.00;46.30;;;;;;5014529;28;20242;-55
2022/03/07 06:56:24;;;;;;;;;;;4.10;46.60;;;;;;5014372;28;19920;-54
2022/03/07 06:58:50;;;;;;;;;;;4.20;46.20;;;;;;5014415;28;20285;-57
2022/03/07 07:01:15;;;;;;;;;;;4.60;52.80;;;;;;5015334;28;19910;-57
2022/03/07 07:03:41;;;;;;;;;;;5.50;58.40;;;;;;5014083;28;19917;-55
2022/03/07 07:06:07;;;;;;;;;;;6.30;53.90;;;;;;5014218;28;19917;-56
2022/03/07 07:08:32;;;;;;;;;;;6.90;49.40;;;;;;5014300;28;20308;-57
2022/03/07 07:10:58;;;;;;;;;;;7.00;44.80;;;;;;5016455;28;19920;-57
2022/03/07 07:13:23;;;;;;;;;;;7.30;47.70;;;;;;5019550;28;19913;-55
2022/03/07 07:15:55;;;;;;;;;;;7.50;42.20;;;;;;5018590;28;19909;-55
2022/03/07 07:18:23;;;;;;;;;;;7.20;39.60;;;;;;5014624;28;19922;-55
2022/03/07 07:20:52;;;;;;;;;;;6.70;40.10;;;;;;5014265;28;19914;-56
2022/03/07 07:23:18;;;;;;;;;;;6.30;40.50;;;;;;5012583;28;20051;-55
2022/03/07 07:25:44;;;;;;;;;;;5.80;41.80;;;;;;5013293;28;20007;-58
2022/03/07 07:28:10;;;;;;;;;;;5.70;42.60;;;;;;5013004;28;20048;-57
2022/03/07 07:30:35;;;;;;;;;;;5.60;42.60;;;;;;5013266;28;19940;-57
2022/03/07 07:33:01;;;;;;;;;;;5.60;42.70;;;;;;5012825;28;20369;-57
2022/03/07 07:35:26;;;;;;;;;;;5.80;42.70;;;;;;5012856;28;19917;-58
2022/03/07 07:37:54;;;;;;;;;;;5.80;42.00;;;;;;5012629;28;19921;-57
2022/03/07 07:40:20;;;;;;;;;;;5.80;42.30;;;;;;5013485;28;19944;-57
2022/03/07 07:42:46;;;;;;;;;;;5.80;42.10;;;;;;5013559;28;19916;-56
2022/03/07 07:45:12;;;;;;;;;;;5.80;42.30;;;;;;5013471;28;20008;-56
2022/03/07 07:47:38;;;;;;;;;;;6.00;42.50;;;;;;5013423;28;19910;-58
2022/03/07 07:50:04;;;;;;;;;;;6.00;41.50;;;;;;5013437;28;19914;-57
2022/03/07 07:52:30;;;;;;;;;;;5.90;41.70;;;;;;5013303;28;19917;-58
2022/03/07 07:54:55;;;;;;;;;;;5.80;41.90;;;;;;5013636;28;19913;-57
2022/03/07 07:57:21;;;;;;;;;;;5.90;42.20;;;;;;5013361;28;19980;-55
2022/03/07 07:59:46;;;;;;;;;;;5.90;41.90;;;;;;5013287;28;19953;-57
2022/03/07 08:02:12;;;;;;;;;;;5.80;41.60;;;;;;5016847;28;19909;-57
2022/03/07 08:04:37;;;;;;;;;;;5.80;41.80;;;;;;5016794;28;19914;-56
2022/03/07 08:07:03;;;;;;;;;;;5.80;41.50;;;;;;5016606;28;20007;-56
2022/03/07 08:09:29;;;;;;;;;;;5.90;42.00;;;;;;5016634;28;19992;-56
2022/03/07 08:11:55;;;;;;;;;;;6.10;41.40;;;;;;5014751;28;19914;-57
2022/03/07 08:14:20;;;;;;;;;;;6.10;41.50;;;;;;5014761;28;19914;-58
2022/03/07 08:16:46;;;;;;;;;;;6.20;41.30;;;;;;5016251;28;20359;-58
2022/03/07 08:19:12;;;;;;;;;;;6.00;41.20;;;;;;5015858;28;20329;-56
2022/03/07 08:21:37;;;;;;;;;;;6.00;41.40;;;;;;5016168;28;20297;-56
2022/03/07 08:24:03;;;;;;;;;;;6.00;41.30;;;;;;5016250;28;19910;-54
2022/03/07 08:26:29;;;;;;;;;;;6.10;42.00;;;;;;5016172;28;19920;-54
2022/03/07 08:28:54;;;;;;;;;;;6.40;40.80;;;;;;5016417;28;19910;-55
2022/03/07 08:31:20;;;;;;;;;;;6.50;40.90;;;;;;5016449;28;20361;-55
2022/03/07 08:33:46;;;;;;;;;;;6.60;40.50;;;;;;5016592;28;19910;-55
2022/03/07 08:36:11;;;;;;;;;;;6.60;39.70;;;;;;5016325;28;19909;-56
2022/03/07 08:38:37;;;;;;;;;;;6.50;40.30;;;;;;5016508;28;19922;-55
2022/03/07 08:41:02;;;;;;;;;;;6.60;40.60;;;;;;5016462;28;19956;-56
2022/03/07 08:43:28;;;;;;;;;;;6.70;40.30;;;;;;5016419;28;20266;-56
2022/03/07 08:45:53;;;;;;;;;;;6.90;39.70;;;;;;5016285;28;19914;-57
2022/03/07 08:48:19;;;;;;;;;;;7.00;39.30;;;;;;5016421;28;20372;-59
2022/03/07 08:50:48;;;;;;;;;;;6.80;39.60;;;;;;5015137;28;19909;-57
2022/03/07 08:53:17;;;;;;;;;;;6.80;39.90;;;;;;5004770;28;20013;-57
2022/03/07 08:55:43;;;;;;;;;;;6.80;39.80;;;;;;5004854;28;19967;-57
2022/03/07 08:58:08;;;;;;;;;;;6.90;40.30;;;;;;5016101;28;20345;-53
2022/03/07 09:00:34;;;;;;;;;;;6.90;39.60;;;;;;5016165;28;19917;-54
2022/03/07 09:03:00;;;;;;;;;;;6.70;39.80;;;;;;5005332;28;20029;-55
2022/03/07 09:05:25;;;;;;;;;;;6.60;39.70;;;;;;5010257;28;19914;-54
2022/03/07 09:07:51;;;;;;;;;;;6.60;40.10;;;;;;5016274;28;20349;-54
2022/03/07 09:10:16;;;;;;;;;;;6.70;40.00;;;;;;5012550;28;19921;-55
2022/03/07 09:12:42;;;;;;;;;;;6.80;39.60;;;;;;5013157;28;19913;-55
2022/03/07 09:15:08;;;;;;;;;;;6.90;39.40;;;;;;5013691;28;19992;-54
2022/03/07 09:17:34;;;;;;;;;;;6.90;39.20;;;;;;5011961;28;19913;-55
2022/03/07 09:20:00;;;;;;;;;;;6.90;39.20;;;;;;5002413;28;20020;-57
2022/03/07 09:22:25;;;;;;;;;;;7.00;39.30;;;;;;5015163;28;19921;-57
2022/03/07 09:24:51;;;;;;;;;;;7.00;39.70;;;;;;5015871;28;19909;-55
2022/03/07 09:27:17;;;;;;;;;;;7.10;39.00;;;;;;5015924;28;19916;-55
2022/03/07 09:29:43;;;;;;;;;;;7.20;39.30;;;;;;5015846;28;20373;-55
2022/03/07 09:32:08;;;;;;;;;;;7.10;39.00;;;;;;5015703;28;19913;-54
2022/03/07 09:34:34;;;;;;;;;;;7.00;38.50;;;;;;5015413;28;19963;-57
2022/03/07 09:37:00;;;;;;;;;;;7.10;38.70;;;;;;5015619;28;19909;-57
2022/03/07 09:39:26;;;;;;;;;;;7.30;38.80;;;;;;5015488;28;20290;-56
2022/03/07 09:41:51;;;;;;;;;;;7.30;38.60;;;;;;5015678;28;19909;-55
2022/03/07 09:44:17;;;;;;;;;;;7.30;38.50;;;;;;5015383;28;19932;-56
2022/03/07 09:46:43;;;;;;;;;;;7.20;38.40;;;;;;4997977;28;19910;-56
2022/03/07 09:49:09;;;;;;;;;;;7.30;38.60;;;;;;5015154;28;20361;-56
2022/03/07 09:51:34;;;;;;;;;;;7.40;38.00;;;;;;5015414;28;20314;-56
2022/03/07 09:54:00;;;;;;;;;;;7.50;37.80;;;;;;5015360;28;19952;-54
2022/03/07 09:56:26;;;;;;;;;;;7.70;37.80;;;;;;5015015;28;19909;-54
2022/03/07 09:58:51;;;;;;;;;;;7.80;37.70;;;;;;5014820;28;20285;-55
2022/03/07 10:01:20;;;;;;;;;;;7.90;37.50;;;;;;5015014;28;19915;-55
2022/03/07 10:03:46;;;;;;;;;;;8.10;37.20;;;;;;5015005;28;19968;-59
2022/03/07 10:06:13;;;;;;;;;;;8.20;47.30;;;;;;5014971;28;19932;-57
2022/03/07 10:08:38;;;;;;;;;;;9.10;48.80;;;;;;5014692;28;19960;-56
2022/03/07 10:11:08;;;;;;;;;;;9.20;36.60;;;;;;5014736;28;19910;-55
2022/03/07 10:13:33;;;;;;;;;;;8.70;35.20;;;;;;5014859;28;19917;-60
2022/03/07 10:16:00;;;;;;;;;;;8.70;36.00;;;;;;5014167;28;19914;-58
2022/03/07 10:18:26;;;;;;;;;;;8.60;36.10;;;;;;5013365;28;19921;-59
2022/03/07 10:20:59;;;;;;;;;;;8.20;35.60;;;;;;5013703;28;20372;-55
2022/03/07 10:23:25;;;;;;;;;;;8.10;36.50;;;;;;5014056;28;20388;-54
2022/03/07 10:25:51;;;;;;;;;;;8.40;43.20;;;;;;5014492;28;19909;-55
2022/03/07 10:28:17;;;;;;;;;;;8.90;37.80;;;;;;5014544;28;20001;-55
2022/03/07 10:30:43;;;;;;;;;;;8.70;35.50;;;;;;4996769;28;19909;-54
2022/03/07 10:33:10;;;;;;;;;;;8.50;35.90;;;;;;5014296;28;19918;-54
2022/03/07 10:35:35;;;;;;;;;;;8.40;35.30;;;;;;5014646;28;19917;-54
2022/03/07 10:38:02;;;;;;;;;;;8.30;36.00;;;;;;5014447;28;19987;-56
2022/03/07 10:40:29;;;;;;;;;;;8.30;35.60;;;;;;5014478;28;19996;-55
2022/03/07 10:42:55;;;;;;;;;;;8.50;35.90;;;;;;5014164;28;19910;-56
2022/03/07 10:45:22;;;;;;;;;;;8.60;35.10;;;;;;5014098;28;19917;-57
2022/03/07 10:48:06;;;;;;;;;;;8.50;35.10;;;;;;5014486;28;20023;-55
2022/03/07 10:50:31;;;;;;;;;;;8.80;34.90;;;;;;5014515;28;19909;-55
2022/03/07 10:52:58;;;;;;;;;;;8.60;34.80;;;;;;5014238;28;20330;-60
2022/03/07 10:55:25;;;;;;;;;;;8.70;35.30;;;;;;5014267;28;19955;-61
2022/03/07 10:57:51;;;;;;;;;;;8.60;35.00;;;;;;5015794;28;19972;-59
2022/03/07 11:00:17;;;;;;;;;;;8.70;35.40;;;;;;5023903;28;19909;-57
2022/03/07 11:02:44;;;;;;;;;;;9.00;35.40;;;;;;5025857;28;19920;-57
2022/03/07 11:05:10;;;;;;;;;;;8.80;33.60;;;;;;5004093;28;19932;-57
2022/03/07 11:07:40;;;;;;;;;;;8.80;34.30;;;;;;5015438;28;19917;-56
2022/03/07 11:10:06;;;;;;;;;;;8.80;34.10;;;;;;5013953;28;19916;-59
2022/03/07 11:12:32;;;;;;;;;;;8.90;34.80;;;;;;5013949;28;20000;-55
2022/03/07 11:15:00;;;;;;;;;;;9.00;33.60;;;;;;5014150;28;20352;-56
2022/03/07 11:17:26;;;;;;;;;;;9.10;33.90;;;;;;5014026;28;20266;-56
2022/03/07 11:19:54;;;;;;;;;;;9.10;33.60;;;;;;5013749;28;19933;-56
2022/03/07 11:22:20;;;;;;;;;;;9.00;33.50;;;;;;5013666;28;19936;-57
2022/03/07 11:24:46;;;;;;;;;;;9.20;33.60;;;;;;5013638;28;19910;-58
2022/03/07 11:27:15;;;;;;;;;;;9.20;33.40;;;;;;5011506;28;19910;-60
2022/03/07 11:29:41;;;;;;;;;;;9.30;33.30;;;;;;5013484;28;20436;-60
2022/03/07 11:32:07;;;;;;;;;;;9.50;33.70;;;;;;5013549;28;19965;-63
2022/03/07 11:34:33;;;;;;;;;;;9.60;32.60;;;;;;5013915;28;19909;-58
2022/03/07 11:36:59;;;;;;;;;;;9.70;32.10;;;;;;5017222;28;20317;-61
2022/03/07 11:39:29;;;;;;;;;;;9.40;32.60;;;;;;5017085;28;19925;-59
2022/03/07 11:41:54;;;;;;;;;;;9.20;32.50;;;;;;5017275;28;20304;-59
2022/03/07 11:44:22;;;;;;;;;;;9.00;32.40;;;;;;5017279;28;19909;-58
2022/03/07 11:46:51;;;;;;;;;;;9.30;33.50;;;;;;5017097;28;19910;-58
2022/03/07 11:49:26;;;;;;;;;;;9.10;32.10;;;;;;5017180;28;19996;-58
2022/03/07 11:52:05;;;;;;;;;;;9.30;32.90;;;;;;5017029;28;19909;-58
2022/03/07 11:54:30;;;;;;;;;;;9.40;32.20;;;;;;5016840;28;19916;-55
2022/03/07 11:57:09;;;;;;;;;;;9.40;32.40;;;;;;5016842;28;19909;-56
2022/03/07 11:59:35;;;;;;;;;;;9.30;31.80;;;;;;5016990;28;20377;-56
2022/03/07 12:02:01;;;;;;;;;;;9.30;32.30;;;;;;4999186;28;19910;-56
2022/03/07 12:04:37;;;;;;;;;;;9.50;32.20;;;;;;5016757;28;19917;-56
2022/03/07 12:07:02;;;;;;;;;;;9.40;31.30;;;;;;5016706;28;20354;-53
2022/03/07 12:09:32;;;;;;;;;;;9.30;31.90;;;;;;5016702;28;19959;-52
2022/03/07 12:12:05;;;;;;;;;;;9.20;32.20;;;;;;5016697;28;19914;-54
2022/03/07 12:14:32;;;;;;;;;;;9.30;32.60;;;;;;5016474;28;20281;-53
2022/03/07 12:17:09;;;;;;;;;;;9.40;32.00;;;;;;5016551;28;19913;-56
2022/03/07 12:19:35;;;;;;;;;;;9.50;32.10;;;;;;5015504;28;19921;-55
2022/03/07 12:22:08;;;;;;;;;;;9.80;31.30;;;;;;5015744;28;19917;-52
2022/03/07 12:24:35;;;;;;;;;;;9.80;30.70;;;;;;5015911;28;20376;-53
2022/03/07 12:27:00;;;;;;;;;;;9.60;31.40;;;;;;5015926;28;20301;-55
2022/03/07 12:29:26;;;;;;;;;;;9.40;31.40;;;;;;5015563;28;19910;-55
2022/03/07 12:31:52;;;;;;;;;;;9.50;30.90;;;;;;5015575;28;19909;-53
2022/03/07 12:34:18;;;;;;;;;;;9.50;31.70;;;;;;5016491;28;19910;-54
2022/03/07 12:36:44;;;;;;;;;;;9.40;30.80;;;;;;5015430;28;20005;-55
2022/03/07 12:39:10;;;;;;;;;;;9.30;31.30;;;;;;5015703;28;20004;-56
2022/03/07 12:41:38;;;;;;;;;;;9.40;31.90;;;;;;5012913;28;19956;-56
2022/03/07 12:44:04;;;;;;;;;;;9.40;31.60;;;;;;4997176;28;19921;-55
2022/03/07 12:46:30;;;;;;;;;;;9.60;31.20;;;;;;4995396;28;19936;-55
2022/03/07 12:48:56;;;;;;;;;;;9.70;31.30;;;;;;4996453;28;19910;-57
2022/03/07 12:51:23;;;;;;;;;;;9.80;30.90;;;;;;4996479;28;20048;-56
2022/03/07 12:53:48;;;;;;;;;;;9.90;30.80;;;;;;4996642;28;20395;-56
2022/03/07 12:56:18;;;;;;;;;;;9.70;29.90;;;;;;5002442;28;19945;-56
2022/03/07 12:58:48;;;;;;;;;;;9.60;30.90;;;;;;4995979;28;19929;-57
2022/03/07 13:01:14;;;;;;;;;;;9.80;30.30;;;;;;4995991;28;19910;-57
2022/03/07 13:03:39;;;;;;;;;;;9.80;30.20;;;;;;4996128;28;20269;-56
2022/03/07 13:06:05;;;;;;;;;;;10.00;30.30;;;;;;5014977;28;20347;-56
2022/03/07 13:08:31;;;;;;;;;;;10.00;30.90;;;;;;5014938;28;20354;-57
2022/03/07 13:10:56;;;;;;;;;;;10.20;30.30;;;;;;5014989;28;19982;-56
2022/03/07 13:13:22;;;;;;;;;;;10.00;30.20;;;;;;5014944;28;20004;-56
2022/03/07 13:15:48;;;;;;;;;;;9.90;29.80;;;;;;5014937;28;20277;-56
2022/03/07 13:18:14;;;;;;;;;;;9.90;29.40;;;;;;5014629;28;20388;-56
2022/03/07 13:20:40;;;;;;;;;;;9.80;29.00;;;;;;5014828;28;19910;-57
2022/03/07 13:23:06;;;;;;;;;;;9.80;29.50;;;;;;4996706;28;19991;-56
2022/03/07 13:25:36;;;;;;;;;;;9.80;29.60;;;;;;5014607;28;19913;-55
2022/03/07 13:28:02;;;;;;;;;;;10.00;30.60;;;;;;5014748;28;19965;-57
2022/03/07 13:30:27;;;;;;;;;;;10.20;30.00;;;;;;5014664;28;19913;-57
2022/03/07 13:33:01;;;;;;;;;;;9.90;30.10;;;;;;5014834;28;19909;-57
2022/03/07 13:35:29;;;;;;;;;;;9.90;29.80;;;;;;5002228;28;20322;-58
2022/03/07 13:37:56;;;;;;;;;;;9.90;30.00;;;;;;5013881;28;20285;-67
2022/03/07 13:40:33;;;;;;;;;;;10.20;30.10;;;;;;5014530;28;20282;-56
2022/03/07 13:43:00;;;;;;;;;;;10.00;30.00;;;;;;5014526;28;20000;-56
2022/03/07 13:45:27;;;;;;;;;;;9.90;29.70;;;;;;4996762;28;19919;-56
2022/03/07 13:47:58;;;;;;;;;;;10.00;29.60;;;;;;5013985;28;19913;-56
2022/03/07 13:50:25;;;;;;;;;;;10.00;29.60;;;;;;5014255;28;19972;-57
2022/03/07 13:53:00;;;;;;;;;;;9.80;29.70;;;;;;5014501;28;19933;-58
2022/03/07 13:55:26;;;;;;;;;;;9.80;29.90;;;;;;5014771;28;20256;-57
2022/03/07 13:57:53;;;;;;;;;;;9.70;30.10;;;;;;5014023;28;19996;-57
2022/03/07 14:00:20;;;;;;;;;;;9.80;29.70;;;;;;5015108;28;19909;-58
2022/03/07 14:02:47;;;;;;;;;;;9.80;30.00;;;;;;5015123;28;19910;-57
2022/03/07 14:05:14;;;;;;;;;;;9.90;29.80;;;;;;5014835;28;19917;-55
2022/03/07 14:07:41;;;;;;;;;;;9.90;30.00;;;;;;5014889;28;19960;-57
2022/03/07 14:10:10;;;;;;;;;;;10.00;30.30;;;;;;5015318;28;20309;-55
2022/03/07 14:12:36;;;;;;;;;;;10.00;30.00;;;;;;5014142;28;19964;-58
2022/03/07 14:15:05;;;;;;;;;;;9.80;29.70;;;;;;5014844;28;19913;-67
2022/03/07 14:17:31;;;;;;;;;;;9.70;29.70;;;;;;5014729;28;20008;-59
2022/03/07 14:19:57;;;;;;;;;;;9.80;29.80;;;;;;5014504;28;19932;-56
2022/03/07 14:22:23;;;;;;;;;;;9.80;29.80;;;;;;5014708;28;19913;-56